createdAt,value
2019-02-11T00:00:46.699Z,0.27
2019-02-11T00:03:15.657Z,0.40
2019-02-11T00:05:44.665Z,0.57
2019-02-11T00:08:13.393Z,0.57
2019-02-11T00:10:42.447Z,0.70
2019-02-11T00:13:11.148Z,0.60
2019-02-11T00:15:40.124Z,0.60
2019-02-11T00:18:08.843Z,0.80
2019-02-11T00:20:37.789Z,0.70
2019-02-11T00:23:06.730Z,0.77
2019-02-11T00:25:35.400Z,0.97
2019-02-11T00:28:04.074Z,0.83
2019-02-11T00:30:34.278Z,0.90
2019-02-11T00:33:03.294Z,0.70
2019-02-11T00:35:31.998Z,0.83
2019-02-11T00:38:01.883Z,0.60
2019-02-11T00:40:30.566Z,0.65
2019-02-11T00:42:59.289Z,0.60
2019-02-11T00:45:28.544Z,1.20
2019-02-11T00:47:57.258Z,1.50
2019-02-11T00:50:25.970Z,1.67
2019-02-11T00:52:54.700Z,0.40
2019-02-11T00:55:23.906Z,0.50
2019-02-11T00:57:52.582Z,0.87
2019-02-11T01:00:21.302Z,0.70
2019-02-11T01:02:50.121Z,0.87
2019-02-11T01:05:19.097Z,0.30
2019-02-11T01:07:47.925Z,0.33
2019-02-11T01:10:19.162Z,0.50
2019-02-11T01:12:47.915Z,0.60
2019-02-11T01:15:16.635Z,0.47
2019-02-11T01:17:45.410Z,0.50
2019-02-11T01:20:14.112Z,0.20
2019-02-11T01:22:42.914Z,0.30
2019-02-11T01:25:11.835Z,0.30
2019-02-11T01:27:40.959Z,0.20
2019-02-11T01:30:11.661Z,0.30
2019-02-11T01:32:40.569Z,0.20
2019-02-11T01:35:09.415Z,0.00
2019-02-11T01:37:38.450Z,0.10
2019-02-11T01:40:10.223Z,0.20
2019-02-11T01:42:39.002Z,0.30
2019-02-11T01:45:09.330Z,0.20
2019-02-11T01:47:38.063Z,0.10
2019-02-11T01:50:08.430Z,0.00
2019-02-11T01:52:37.531Z,0.07
2019-02-11T01:55:06.553Z,0.17
2019-02-11T01:57:35.815Z,0.00
2019-02-11T02:00:05.221Z,0.03
2019-02-11T02:02:33.917Z,0.00
2019-02-11T02:05:02.610Z,0.10
2019-02-11T02:07:31.328Z,0.40
2019-02-11T02:10:00.027Z,0.10
2019-02-11T02:12:29.166Z,0.13
2019-02-11T02:14:57.935Z,0.10
2019-02-11T02:17:26.662Z,0.10
2019-02-11T02:19:55.350Z,0.17
2019-02-11T02:22:24.315Z,0.20
2019-02-11T02:24:53.222Z,0.17
2019-02-11T02:27:22.160Z,0.00
2019-02-11T02:29:50.887Z,0.17
2019-02-11T02:32:19.790Z,0.10
2019-02-11T02:34:48.462Z,0.10
2019-02-11T02:37:17.425Z,0.10
2019-02-11T02:39:46.369Z,0.47
2019-02-11T02:42:15.219Z,0.10
2019-02-11T02:44:44.201Z,0.00
2019-02-11T02:47:13.035Z,0.20
2019-02-11T02:49:41.966Z,0.00
2019-02-11T02:52:13.491Z,0.13
2019-02-11T02:54:42.378Z,0.30
2019-02-11T02:57:11.575Z,0.10
2019-02-11T02:59:40.272Z,0.20
2019-02-11T03:02:12.254Z,0.10
2019-02-11T03:04:41.025Z,0.00
2019-02-11T03:07:13.638Z,0.03
2019-02-11T03:09:42.326Z,0.00
2019-02-11T03:12:11.146Z,0.00
2019-02-11T03:14:39.926Z,0.00
2019-02-11T03:17:08.675Z,0.23
2019-02-11T03:19:37.371Z,0.10
2019-02-11T03:22:08.065Z,0.10
2019-02-11T03:24:36.734Z,0.20
2019-02-11T03:27:05.557Z,0.40
2019-02-11T03:29:34.308Z,0.70
2019-02-11T03:32:03.391Z,0.30
2019-02-11T03:34:32.341Z,0.63
2019-02-11T03:37:04.278Z,0.40
2019-02-11T03:39:33.899Z,0.60
2019-02-11T03:42:02.763Z,0.80
2019-02-11T03:44:31.839Z,0.47
2019-02-11T03:47:00.530Z,0.90
2019-02-11T03:49:29.273Z,0.93
2019-02-11T03:51:58.287Z,1.30
2019-02-11T03:54:27.539Z,1.13
2019-02-11T03:56:56.272Z,1.60
2019-02-11T03:59:25.330Z,1.50
2019-02-11T04:01:54.243Z,1.20
2019-02-11T04:04:22.921Z,1.83
2019-02-11T04:06:51.625Z,1.20
2019-02-11T04:09:20.380Z,1.80
2019-02-11T04:11:49.058Z,1.80
2019-02-11T04:14:24.499Z,2.30
2019-02-11T04:16:48.697Z,1.73
2019-02-11T04:19:17.465Z,2.43
2019-02-11T04:21:46.163Z,2.30
2019-02-11T04:24:14.838Z,1.77
2019-02-11T04:26:43.804Z,1.63
2019-02-11T04:29:12.842Z,1.77
2019-02-11T04:31:41.521Z,1.67
2019-02-11T04:34:10.465Z,1.80
2019-02-11T04:36:39.214Z,1.93
2019-02-11T04:39:08.326Z,1.67
2019-02-11T04:41:37.402Z,1.30
2019-02-11T04:44:06.449Z,1.27
2019-02-11T04:46:36.118Z,1.50
2019-02-11T04:49:04.798Z,1.53
2019-02-11T04:51:33.533Z,1.40
2019-02-11T04:54:02.201Z,1.30
2019-02-11T04:56:31.344Z,1.80
2019-02-11T04:59:00.310Z,1.13
2019-02-11T05:01:29.037Z,1.07
2019-02-11T05:03:57.726Z,1.13
2019-02-11T05:06:26.923Z,0.70
2019-02-11T05:08:56.054Z,1.30
2019-02-11T05:11:25.210Z,0.90
2019-02-11T05:13:53.922Z,1.00
2019-02-11T05:16:22.594Z,1.13
2019-02-11T05:18:51.470Z,0.80
2019-02-11T05:21:20.568Z,1.37
2019-02-11T05:23:49.302Z,1.33
2019-02-11T05:26:18.266Z,1.50
2019-02-11T05:28:47.108Z,2.77
2019-02-11T05:31:16.134Z,0.70
2019-02-11T05:33:45.178Z,0.87
2019-02-11T05:36:13.918Z,0.80
2019-02-11T05:38:42.866Z,1.00
2019-02-11T05:41:11.565Z,1.00
2019-02-11T05:43:40.559Z,1.03
2019-02-11T05:46:09.546Z,0.90
2019-02-11T05:48:38.459Z,1.03
2019-02-11T05:51:07.374Z,1.67
2019-02-11T05:53:36.599Z,1.33
2019-02-11T05:56:05.368Z,1.70
2019-02-11T05:58:34.233Z,1.20
2019-02-11T06:01:02.922Z,1.47
2019-02-11T06:03:31.619Z,1.40
2019-02-11T06:06:00.654Z,1.40
2019-02-11T06:08:29.358Z,1.03
2019-02-11T06:10:58.427Z,0.63
2019-02-11T06:13:27.138Z,1.20
2019-02-11T06:15:56.116Z,2.00
2019-02-11T06:18:24.835Z,1.30
2019-02-11T06:20:53.801Z,1.47
2019-02-11T06:23:22.515Z,1.23
2019-02-11T06:25:51.435Z,1.30
2019-02-11T06:28:20.141Z,1.07
2019-02-11T06:30:48.869Z,2.10
2019-02-11T06:33:17.642Z,1.27
2019-02-11T06:35:46.331Z,1.40
2019-02-11T06:38:15.039Z,1.67
2019-02-11T06:40:43.749Z,1.30
2019-02-11T06:43:12.436Z,1.57
2019-02-11T06:45:41.112Z,1.53
2019-02-11T06:48:09.936Z,1.10
2019-02-11T06:50:39.726Z,1.67
2019-02-11T06:53:08.564Z,1.17
2019-02-11T06:55:37.354Z,1.50
2019-02-11T06:58:06.154Z,1.13
2019-02-11T07:00:34.884Z,1.53
2019-02-11T07:03:03.806Z,1.53
2019-02-11T07:05:32.509Z,1.30
2019-02-11T07:08:01.162Z,1.37
2019-02-11T07:10:30.502Z,1.50
2019-02-11T07:13:07.191Z,0.80
2019-02-11T07:15:35.931Z,1.17
2019-02-11T07:18:04.919Z,1.20
2019-02-11T07:20:33.630Z,1.40
2019-02-11T07:23:02.305Z,1.00
2019-02-11T07:25:31.224Z,1.10
2019-02-11T07:27:59.902Z,0.67
2019-02-11T07:30:28.723Z,1.00
2019-02-11T07:32:57.615Z,0.90
2019-02-11T07:35:26.677Z,1.77
2019-02-11T07:37:55.754Z,1.17
2019-02-11T07:40:27.029Z,1.63
2019-02-11T07:43:00.723Z,1.07
2019-02-11T07:45:35.393Z,1.10
2019-02-11T07:48:04.205Z,1.37
2019-02-11T07:50:33.227Z,1.50
2019-02-11T07:53:03.204Z,1.80
2019-02-11T07:55:32.106Z,1.10
2019-02-11T07:58:00.817Z,1.47
2019-02-11T08:00:32.544Z,1.17
2019-02-11T08:03:01.791Z,1.40
2019-02-11T08:05:30.516Z,0.97
2019-02-11T08:07:59.236Z,2.00
2019-02-11T08:10:27.942Z,0.80
2019-02-11T08:12:58.358Z,0.90
2019-02-11T08:15:27.093Z,1.10
2019-02-11T08:17:55.857Z,0.73
2019-02-11T08:20:25.245Z,0.90
2019-02-11T08:22:54.578Z,0.70
2019-02-11T08:25:23.549Z,1.00
2019-02-11T08:27:52.282Z,1.20
2019-02-11T08:30:20.957Z,1.00
2019-02-11T08:32:56.930Z,1.03
2019-02-11T08:35:25.718Z,1.57
2019-02-11T08:37:54.412Z,1.57
2019-02-11T08:40:23.113Z,1.20
2019-02-11T08:42:51.766Z,1.30
2019-02-11T08:45:20.469Z,1.37
2019-02-11T08:47:49.167Z,1.03
2019-02-11T08:50:18.338Z,1.63
2019-02-11T08:52:47.126Z,1.67
2019-02-11T08:55:16.776Z,1.30
2019-02-11T08:57:46.081Z,1.00
2019-02-11T09:00:15.127Z,1.87
2019-02-11T09:02:44.814Z,1.17
2019-02-11T09:05:13.717Z,1.30
2019-02-11T09:07:42.425Z,1.37
2019-02-11T09:10:11.530Z,1.60
2019-02-11T09:12:42.014Z,1.03
2019-02-11T09:15:10.792Z,1.77
2019-02-11T09:17:39.886Z,1.10
2019-02-11T09:20:09.463Z,1.67
2019-02-11T09:22:38.494Z,1.73
2019-02-11T09:25:08.219Z,1.97
2019-02-11T09:27:36.891Z,3.07
2019-02-11T09:30:07.783Z,3.73
2019-02-11T09:32:36.798Z,1.70
2019-02-11T09:35:09.630Z,2.00
2019-02-11T09:37:42.490Z,1.10
2019-02-11T09:40:15.467Z,1.53
2019-02-11T09:42:52.278Z,1.53
2019-02-11T09:45:21.914Z,2.00
2019-02-11T09:47:50.982Z,1.53
2019-02-11T09:50:25.646Z,1.37
2019-02-11T09:52:54.758Z,1.77
2019-02-11T09:55:28.143Z,2.20
2019-02-11T09:58:01.021Z,1.80
2019-02-11T10:00:30.146Z,1.73
2019-02-11T10:02:58.874Z,2.10
2019-02-11T10:05:27.659Z,1.63
2019-02-11T10:07:57.057Z,1.87
2019-02-11T10:10:25.899Z,1.90
2019-02-11T10:12:56.165Z,2.10
2019-02-11T10:15:24.932Z,1.73
2019-02-11T10:17:54.121Z,1.50
2019-02-11T10:20:23.134Z,1.50
2019-02-11T10:22:52.150Z,2.13
2019-02-11T10:25:24.823Z,1.60
2019-02-11T10:27:55.154Z,2.63
2019-02-11T10:30:24.092Z,2.80
2019-02-11T10:32:53.007Z,1.83
2019-02-11T10:35:21.682Z,4.30
2019-02-11T10:37:50.644Z,2.83
2019-02-11T10:40:19.325Z,3.63
2019-02-11T10:42:48.217Z,1.40
2019-02-11T10:45:26.883Z,2.13
2019-02-11T10:47:55.613Z,1.80
2019-02-11T10:50:24.871Z,2.00
2019-02-11T10:52:53.581Z,1.83
2019-02-11T10:55:22.478Z,1.50
2019-02-11T10:57:51.438Z,2.53
2019-02-11T11:00:22.542Z,1.20
2019-02-11T11:02:51.292Z,2.43
2019-02-11T11:05:20.040Z,1.97
2019-02-11T11:07:48.759Z,2.53
2019-02-11T11:10:20.918Z,1.97
2019-02-11T11:12:49.887Z,3.80
2019-02-11T11:15:19.321Z,2.37
2019-02-11T11:17:48.463Z,1.97
2019-02-11T11:20:17.670Z,1.73
2019-02-11T11:22:46.737Z,1.90
2019-02-11T11:25:16.383Z,1.93
2019-02-11T11:27:45.150Z,2.70
2019-02-11T11:30:14.554Z,2.30
2019-02-11T11:32:43.850Z,2.17
2019-02-11T11:35:15.404Z,1.77
2019-02-11T11:37:44.269Z,1.80
2019-02-11T11:40:14.735Z,1.87
2019-02-11T11:42:43.862Z,2.20
2019-02-11T11:45:16.708Z,2.27
2019-02-11T11:47:45.828Z,1.70
2019-02-11T11:50:14.846Z,1.50
2019-02-11T11:52:43.630Z,2.20
2019-02-11T11:55:13.871Z,1.63
2019-02-11T11:57:42.802Z,2.70
2019-02-11T12:00:16.135Z,1.63
2019-02-11T12:03:00.218Z,2.67
2019-02-11T12:05:17.203Z,2.60
2019-02-11T12:07:46.038Z,1.67
2019-02-11T12:10:14.914Z,2.23
2019-02-11T12:12:46.225Z,1.83
2019-02-11T12:15:16.712Z,1.67
2019-02-11T12:17:46.197Z,1.23
2019-02-11T12:20:15.130Z,1.90
2019-02-11T12:22:46.217Z,2.13
2019-02-11T12:25:15.185Z,1.23
2019-02-11T12:27:44.064Z,2.07
2019-02-11T12:30:17.993Z,1.73
2019-02-11T12:32:46.753Z,1.67
2019-02-11T12:35:15.593Z,1.77
2019-02-11T12:37:44.513Z,1.00
2019-02-11T12:40:13.566Z,1.23
2019-02-11T12:42:42.350Z,2.57
2019-02-11T12:45:15.894Z,1.33
2019-02-11T12:47:44.659Z,1.90
2019-02-11T12:50:14.476Z,2.33
2019-02-11T12:52:43.395Z,2.23
2019-02-11T12:55:13.367Z,2.10
2019-02-11T12:57:42.260Z,1.90
2019-02-11T13:00:21.056Z,1.37
2019-02-11T13:02:54.315Z,2.03
2019-02-11T13:05:42.589Z,1.47
2019-02-11T13:07:54.458Z,1.30
2019-02-11T13:10:24.496Z,1.47
2019-02-11T13:12:53.207Z,1.40
2019-02-11T13:15:53.201Z,2.00
2019-02-11T13:17:52.839Z,1.80
2019-02-11T13:20:21.818Z,1.53
2019-02-11T13:22:50.580Z,2.50
2019-02-11T13:25:19.451Z,3.03
2019-02-11T13:27:48.373Z,2.27
2019-02-11T13:30:18.489Z,1.30
2019-02-11T13:32:49.913Z,2.03
2019-02-11T13:35:18.965Z,1.60
2019-02-11T13:37:47.772Z,1.67
2019-02-11T13:40:16.557Z,1.83
2019-02-11T13:42:45.660Z,0.97
2019-02-11T13:45:22.235Z,1.03
2019-02-11T13:47:56.029Z,1.57
2019-02-11T13:50:23.466Z,2.37
2019-02-11T13:52:53.005Z,2.10
2019-02-11T13:55:22.088Z,1.77
2019-02-11T13:57:51.220Z,2.00
2019-02-11T14:00:34.417Z,1.93
2019-02-11T14:03:04.623Z,1.70
2019-02-11T14:05:33.840Z,1.87
2019-02-11T14:08:04.232Z,1.70
2019-02-11T14:10:33.223Z,0.93
2019-02-11T14:13:02.138Z,1.83
2019-02-11T14:15:31.008Z,0.93
2019-02-11T14:18:12.339Z,1.67
2019-02-11T14:20:37.184Z,1.85
2019-02-11T14:23:06.436Z,1.37
2019-02-11T14:25:46.417Z,1.67
2019-02-11T14:28:06.171Z,1.43
2019-02-11T14:30:35.465Z,2.10
2019-02-11T14:33:04.483Z,1.83
2019-02-11T14:35:33.268Z,1.63
2019-02-11T14:38:02.899Z,1.50
2019-02-11T14:40:32.031Z,1.92
2019-02-11T14:43:00.842Z,1.20
2019-02-11T14:45:30.301Z,1.70
2019-02-11T14:47:59.273Z,1.73
2019-02-11T14:50:28.311Z,1.00
2019-02-11T14:52:57.614Z,1.43
2019-02-11T14:55:26.364Z,1.40
2019-02-11T14:57:55.099Z,0.60
2019-02-11T15:00:23.785Z,1.23
2019-02-11T15:02:52.462Z,1.07
2019-02-11T15:05:21.254Z,2.27
2019-02-11T15:07:49.939Z,1.17
2019-02-11T15:10:19.718Z,1.03
2019-02-11T15:12:48.747Z,0.63
2019-02-11T15:15:17.533Z,1.07
2019-02-11T15:17:46.222Z,0.57
2019-02-11T15:20:15.172Z,0.80
2019-02-11T15:22:44.152Z,0.37
2019-02-11T15:25:14.558Z,0.80
2019-02-11T15:27:46.581Z,0.60
2019-02-11T15:30:17.148Z,1.10
2019-02-11T15:32:45.989Z,0.33
2019-02-11T15:35:14.794Z,0.90
2019-02-11T15:37:43.802Z,0.43
2019-02-11T15:40:15.111Z,0.50
2019-02-11T15:42:44.234Z,0.70
2019-02-11T15:45:16.501Z,1.20
2019-02-11T15:47:45.467Z,0.97
2019-02-11T15:50:15.238Z,1.00
2019-02-11T15:52:44.201Z,0.57
2019-02-11T15:55:15.150Z,0.40
2019-02-11T15:57:43.831Z,0.70
2019-02-11T16:00:14.642Z,0.77
2019-02-11T16:02:43.439Z,0.33
2019-02-11T16:05:15.940Z,0.63
2019-02-11T16:07:42.817Z,1.73
2019-02-11T16:10:14.266Z,0.23
2019-02-11T16:12:43.145Z,0.40
2019-02-11T16:15:11.984Z,0.40
2019-02-11T16:17:40.759Z,0.50
2019-02-11T16:20:09.858Z,0.33
2019-02-11T16:22:38.931Z,0.30
2019-02-11T16:25:09.286Z,0.50
2019-02-11T16:27:38.012Z,0.40
2019-02-11T16:30:08.913Z,0.90
2019-02-11T16:32:37.590Z,0.50
2019-02-11T16:35:07.898Z,0.40
2019-02-11T16:37:36.870Z,0.63
2019-02-11T16:40:10.932Z,0.60
2019-02-11T16:42:40.256Z,0.67
2019-02-11T16:45:09.838Z,0.40
2019-02-11T16:47:38.864Z,0.28
2019-02-11T16:50:07.707Z,0.50
2019-02-11T16:52:36.601Z,0.77
2019-02-11T16:55:05.457Z,0.23
2019-02-11T16:57:34.664Z,0.70
2019-02-11T17:00:03.795Z,0.70
2019-02-11T17:02:32.655Z,0.20
2019-02-11T17:05:01.880Z,1.90
2019-02-11T17:07:30.807Z,0.57
2019-02-11T17:09:59.661Z,0.93
2019-02-11T17:12:28.988Z,0.40
2019-02-11T17:14:58.504Z,0.67
2019-02-11T17:17:27.263Z,0.77
2019-02-11T17:19:55.957Z,0.70
2019-02-11T17:22:24.869Z,0.60
2019-02-11T17:24:53.598Z,0.70
2019-02-11T17:27:22.579Z,0.57
2019-02-11T17:29:51.264Z,0.60
2019-02-11T17:32:20.244Z,0.70
2019-02-11T17:34:49.217Z,0.60
2019-02-11T17:37:20.360Z,0.47
2019-02-11T17:39:49.531Z,0.73
2019-02-11T17:42:19.527Z,0.40
2019-02-11T17:44:50.854Z,0.70
2019-02-11T17:47:19.710Z,0.67
2019-02-11T17:49:50.846Z,0.50
2019-02-11T17:52:20.669Z,0.53
2019-02-11T17:54:49.472Z,0.80
2019-02-11T17:57:18.346Z,2.17
2019-02-11T17:59:47.212Z,1.17
2019-02-11T18:02:18.342Z,0.97
2019-02-11T18:04:47.252Z,1.00
2019-02-11T18:07:17.175Z,0.70
2019-02-11T18:09:45.931Z,0.93
2019-02-11T18:12:18.188Z,0.73
2019-02-11T18:14:47.470Z,7.00
2019-02-11T18:17:17.369Z,0.50
2019-02-11T18:19:46.376Z,0.80
2019-02-11T18:22:15.139Z,0.50
2019-02-11T18:24:46.554Z,0.70
2019-02-11T18:27:15.860Z,0.80
2019-02-11T18:29:45.423Z,1.00
2019-02-11T18:32:14.493Z,1.43
2019-02-11T18:34:43.494Z,0.93
2019-02-11T18:37:12.240Z,1.03
2019-02-11T18:39:40.899Z,1.23
2019-02-11T18:42:15.284Z,1.67
2019-02-11T18:44:43.815Z,1.03
2019-02-11T18:47:12.498Z,0.90
2019-02-11T18:49:41.454Z,0.50
2019-02-11T18:52:10.202Z,0.97
2019-02-11T18:54:38.867Z,0.60
2019-02-11T18:57:11.677Z,1.47
2019-02-11T18:59:40.694Z,0.75
2019-02-11T19:02:09.527Z,0.90
2019-02-11T19:04:38.432Z,0.60
2019-02-11T19:07:10.033Z,0.70
2019-02-11T19:09:38.697Z,0.63
2019-02-11T19:12:07.451Z,0.93
2019-02-11T19:14:36.123Z,1.07
2019-02-11T19:17:06.548Z,1.33
2019-02-11T19:19:42.972Z,0.80
2019-02-11T19:22:08.162Z,0.93
2019-02-11T19:24:37.050Z,1.07
2019-02-11T19:27:05.999Z,1.30
2019-02-11T19:29:34.638Z,1.20
2019-02-11T19:32:03.382Z,0.90
2019-02-11T19:34:32.107Z,0.73
2019-02-11T19:37:02.282Z,1.03
2019-02-11T19:39:31.029Z,1.60
2019-02-11T19:41:59.703Z,1.00
2019-02-11T19:44:28.574Z,0.93
2019-02-11T19:46:57.231Z,1.40
2019-02-11T19:49:25.919Z,1.23
2019-02-11T19:51:54.599Z,0.80
2019-02-11T19:54:23.270Z,1.57
2019-02-11T19:56:55.003Z,0.90
2019-02-11T19:59:23.770Z,0.90
2019-02-11T20:01:52.465Z,1.30
2019-02-11T20:04:21.187Z,1.30
2019-02-11T20:06:49.908Z,0.83
2019-02-11T20:09:19.671Z,1.10
2019-02-11T20:11:48.919Z,1.30
2019-02-11T20:14:17.806Z,1.00
2019-02-11T20:16:47.899Z,0.93
2019-02-11T20:19:17.461Z,1.60
2019-02-11T20:21:46.339Z,2.50
2019-02-11T20:24:15.148Z,1.60
2019-02-11T20:26:43.828Z,1.73
2019-02-11T20:29:12.669Z,2.13
2019-02-11T20:31:41.670Z,1.47
2019-02-11T20:34:10.358Z,1.30
2019-02-11T20:36:39.037Z,1.93
2019-02-11T20:39:07.862Z,2.00
2019-02-11T20:41:36.582Z,2.10
2019-02-11T20:44:05.925Z,1.20
2019-02-11T20:46:34.695Z,2.13
2019-02-11T20:49:03.627Z,2.33
2019-02-11T20:51:32.291Z,1.73
2019-02-11T20:54:01.284Z,1.63
2019-02-11T20:56:30.210Z,1.77
2019-02-11T20:58:58.882Z,1.70
2019-02-11T21:01:27.538Z,1.60
2019-02-11T21:03:56.238Z,2.10
2019-02-11T21:06:25.159Z,1.40
2019-02-11T21:08:53.903Z,1.37
2019-02-11T21:11:23.021Z,0.83
2019-02-11T21:13:52.195Z,1.57
2019-02-11T21:16:21.417Z,1.30
2019-02-11T21:18:50.130Z,2.37
2019-02-11T21:21:19.035Z,3.07
2019-02-11T21:23:47.819Z,0.93
2019-02-11T21:26:16.493Z,0.90
2019-02-11T21:28:45.192Z,1.77
2019-02-11T21:31:14.376Z,2.07
2019-02-11T21:33:43.146Z,1.57
2019-02-11T21:36:11.883Z,1.87
2019-02-11T21:38:40.548Z,1.57
2019-02-11T21:41:09.242Z,1.67
2019-02-11T21:43:38.161Z,1.93
2019-02-11T21:46:07.234Z,2.10
2019-02-11T21:48:36.458Z,1.57
2019-02-11T21:51:05.126Z,1.47
2019-02-11T21:53:33.798Z,1.23
2019-02-11T21:56:03.009Z,1.63
2019-02-11T21:58:32.267Z,1.67
2019-02-11T22:01:02.573Z,2.07
2019-02-11T22:03:31.423Z,1.70
2019-02-11T22:06:00.432Z,2.37
2019-02-11T22:08:29.711Z,1.43
2019-02-11T22:10:59.122Z,2.10
2019-02-11T22:13:28.351Z,1.30
2019-02-11T22:15:57.314Z,1.37
2019-02-11T22:18:26.050Z,1.03
2019-02-11T22:20:54.801Z,1.93
2019-02-11T22:23:23.488Z,1.47
2019-02-11T22:25:53.198Z,1.70
2019-02-11T22:28:21.879Z,1.03
2019-02-11T22:30:50.554Z,2.17
2019-02-11T22:33:19.293Z,2.10
2019-02-11T22:35:47.994Z,0.93
2019-02-11T22:38:17.115Z,1.23
2019-02-11T22:40:45.858Z,1.00
2019-02-11T22:43:14.782Z,1.73
2019-02-11T22:45:43.674Z,1.40
2019-02-11T22:48:12.348Z,1.67
2019-02-11T22:50:43.242Z,1.23
2019-02-11T22:53:11.379Z,1.00
2019-02-11T22:55:40.523Z,1.80
2019-02-11T22:58:09.203Z,1.50
2019-02-11T23:00:47.995Z,1.00
2019-02-11T23:03:16.957Z,1.20
2019-02-11T23:05:45.970Z,1.40
2019-02-11T23:08:15.031Z,1.10
2019-02-11T23:10:44.602Z,1.17
2019-02-11T23:13:13.290Z,1.83
2019-02-11T23:15:42.209Z,1.30
2019-02-11T23:18:11.364Z,0.97
2019-02-11T23:20:40.131Z,1.40
2019-02-11T23:23:08.822Z,1.27
2019-02-11T23:25:37.713Z,0.70
2019-02-11T23:28:07.346Z,0.77
2019-02-11T23:30:36.126Z,1.23
2019-02-11T23:33:04.790Z,0.83
2019-02-11T23:35:33.705Z,1.33
2019-02-11T23:38:02.663Z,0.97
2019-02-11T23:40:31.307Z,1.70
2019-02-11T23:43:00.226Z,1.30
2019-02-11T23:45:28.956Z,0.90
2019-02-11T23:47:57.864Z,1.10
2019-02-11T23:50:26.534Z,0.80
2019-02-11T23:52:55.223Z,0.97
2019-02-11T23:55:24.422Z,1.33
2019-02-11T23:57:53.086Z,1.00
